Time;durP1;ratioP1;P1;durP2;ratioP2;P2;SDS_P1;SDS_P2;PMS_P1;PMS_P2;Temp;Humidity;BMP_temperature;BMP_pressure;BME280_temperature;BME280_humidity;BME280_pressure;Samples;Min_cycle;Max_cycle;Signal;HPM_P1;HPM_P2
2022/01/07 00:02:06;;;;;;;13.03;3.83;;;;;;;-145.18;100.00;47611.78;5007840;28;20264;-76
2022/01/07 00:04:33;;;;;;;13.43;4.23;;;;;;;-145.18;100.00;47619.59;5006376;28;20037;-75
2022/01/07 00:06:59;;;;;;;21.47;5.03;;;;;;;-145.18;100.00;47621.56;5007397;28;20283;-75
2022/01/07 00:09:24;;;;;;;19.40;4.47;;;;;;;-145.18;100.00;47617.66;5008171;28;20406;-75
2022/01/07 00:11:50;;;;;;;16.47;3.97;;;;;;;-145.18;100.00;47615.69;5023174;28;20041;-75
2022/01/07 00:14:15;;;;;;;15.63;3.67;;;;;;;-145.18;100.00;47635.22;5027455;28;20045;-75
2022/01/07 00:16:40;;;;;;;11.67;4.00;;;;;;;-145.18;100.00;47615.69;5027265;28;20490;-75
2022/01/07 00:19:06;;;;;;;15.37;4.17;;;;;;;-145.18;100.00;47623.50;5027438;28;20045;-74
2022/01/07 00:21:31;;;;;;;11.53;3.63;;;;;;;-145.18;100.00;47625.47;5027840;28;20054;-75
2022/01/07 00:23:57;;;;;;;18.97;4.13;;;;;;;-145.18;100.00;47615.69;5027741;28;20052;-74
2022/01/07 00:26:22;;;;;;;16.13;3.70;;;;;;;-145.18;100.00;47609.84;5027210;28;20076;-75
2022/01/07 00:28:48;;;;;;;15.07;3.30;;;;;;;-145.18;100.00;47617.66;5027206;28;20887;-75
2022/01/07 00:31:13;;;;;;;16.00;4.60;;;;;;;-145.18;100.00;47619.59;5025089;28;20050;-75
2022/01/07 00:33:39;;;;;;;12.23;3.93;;;;;;;-145.18;100.00;47613.75;5027333;28;20049;-75
2022/01/07 00:36:05;;;;;;;18.77;4.50;;;;;;;-145.18;100.00;47617.66;5027865;28;20052;-75
2022/01/07 00:38:32;;;;;;;15.33;3.93;;;;;;;-145.18;100.00;47603.97;5027168;28;20056;-75
2022/01/07 00:40:58;;;;;;;10.70;3.43;;;;;;;-145.18;100.00;47598.09;5027197;28;20045;-75
2022/01/07 00:43:23;;;;;;;13.60;3.97;;;;;;;-145.18;100.00;47613.75;5027032;28;20842;-74
2022/01/07 00:45:48;;;;;;;15.10;3.10;;;;;;;-145.18;100.00;47607.88;5026815;28;20301;-74
2022/01/07 00:48:14;;;;;;;10.67;3.57;;;;;;;-145.18;100.00;47609.84;5027237;28;20094;-74
2022/01/07 00:50:40;;;;;;;11.47;3.43;;;;;;;-145.18;100.00;47619.59;5027606;28;20049;-74
2022/01/07 00:53:05;;;;;;;8.20;3.00;;;;;;;-145.18;100.00;47609.84;5027108;28;20052;-74
2022/01/07 00:55:31;;;;;;;14.10;3.40;;;;;;;-145.18;100.00;47621.56;5027080;28;20045;-75
2022/01/07 00:57:57;;;;;;;7.47;2.70;;;;;;;-145.18;100.00;47590.28;5025572;28;20444;-74
2022/01/07 01:00:24;;;;;;;13.30;2.70;;;;;;;-145.18;100.00;47617.66;5027069;28;20041;-74
2022/01/07 01:02:51;;;;;;;6.80;2.33;;;;;;;-145.18;100.00;47607.88;5026847;28;20290;-74
2022/01/07 01:05:16;;;;;;;8.80;3.33;;;;;;;-145.18;100.00;47615.69;5027005;28;20279;-74
2022/01/07 01:07:43;;;;;;;8.40;2.80;;;;;;;-145.18;100.00;47588.34;5027230;28;20255;-74
2022/01/07 01:10:11;;;;;;;4.37;2.20;;;;;;;-145.18;100.00;47643.03;5025885;28;20061;-74
2022/01/07 01:12:39;;;;;;;6.13;2.47;;;;;;;-145.18;100.00;47594.19;5025439;28;20287;-74
2022/01/07 01:15:07;;;;;;;10.53;2.70;;;;;;;-145.18;100.00;47619.59;5026891;28;20279;-74
2022/01/07 01:17:33;;;;;;;6.20;2.43;;;;;;;-145.18;100.00;47611.78;5026341;28;20271;-74
2022/01/07 01:19:58;;;;;;;14.13;3.40;;;;;;;-145.18;100.00;47607.88;5027227;28;20282;-74
2022/01/07 01:22:24;;;;;;;12.60;3.60;;;;;;;-145.18;100.00;47607.88;5025635;28;20275;-74
2022/01/07 01:24:49;;;;;;;13.33;3.87;;;;;;;-145.18;100.00;47605.94;5026999;28;20126;-74
2022/01/07 01:27:15;;;;;;;12.07;3.53;;;;;;;-145.18;100.00;47611.78;5025548;28;20086;-74
2022/01/07 01:29:40;;;;;;;8.80;2.53;;;;;;;-145.18;100.00;47646.97;5026856;28;20040;-74
2022/01/07 01:32:06;;;;;;;16.87;3.63;;;;;;;-145.18;100.00;47594.19;5026363;28;20079;-74
2022/01/07 01:34:31;;;;;;;12.43;3.33;;;;;;;-145.18;100.00;47631.31;5026813;28;20136;-74
2022/01/07 01:36:56;;;;;;;9.03;3.20;;;;;;;-145.18;100.00;47617.66;5026663;28;20505;-74
2022/01/07 01:39:22;;;;;;;19.60;3.93;;;;;;;-145.18;100.00;47623.50;5027227;28;20049;-74
2022/01/07 01:41:48;;;;;;;14.53;2.87;;;;;;;-145.18;100.00;47607.88;5026551;28;20065;-74
2022/01/07 01:44:14;;;;;;;8.23;3.23;;;;;;;-145.18;100.00;47605.94;5030500;28;20128;-74
2022/01/07 01:46:39;;;;;;;13.63;4.13;;;;;;;-145.18;100.00;47629.38;5029941;28;20041;-75
2022/01/07 01:49:05;;;;;;;12.83;4.17;;;;;;;-145.18;100.00;47613.75;5030605;28;20537;-76
2022/01/07 01:51:32;;;;;;;14.23;3.33;;;;;;;-145.18;100.00;47615.69;5030058;28;20045;-76
2022/01/07 01:53:57;;;;;;;10.53;3.07;;;;;;;-145.18;100.00;47629.38;5030433;28;20293;-75
2022/01/07 01:56:23;;;;;;;11.87;3.10;;;;;;;-145.18;100.00;47619.59;5029765;28;20275;-74
2022/01/07 01:58:48;;;;;;;15.07;5.20;;;;;;;-145.18;100.00;47625.47;5029894;28;20099;-74
2022/01/07 02:01:14;;;;;;;6.73;2.73;;;;;;;-145.18;100.00;47603.97;5030263;28;20417;-74
2022/01/07 02:03:40;;;;;;;9.67;2.73;;;;;;;-145.18;100.00;47621.56;5030017;28;20048;-73
2022/01/07 02:06:05;;;;;;;9.77;3.07;;;;;;;-145.18;100.00;47631.31;5028342;28;20279;-74
2022/01/07 02:08:31;;;;;;;11.50;4.67;;;;;;;-145.18;100.00;47629.38;5030238;28;20060;-74
2022/01/07 02:11:00;;;;;;;9.50;4.10;;;;;;;-145.18;100.00;47621.56;5029234;28;20116;-73
2022/01/07 02:13:25;;;;;;;13.43;3.93;;;;;;;-145.18;100.00;47621.56;5029921;28;20044;-73
2022/01/07 02:15:50;;;;;;;15.10;3.83;;;;;;;-145.18;100.00;47629.38;5029864;28;20274;-74
2022/01/07 02:18:17;;;;;;;9.53;4.13;;;;;;;-145.18;100.00;47633.28;5029061;28;20049;-74
2022/01/07 02:20:43;;;;;;;12.00;4.90;;;;;;;-145.18;100.00;47621.56;5027839;28;20399;-73
2022/01/07 02:23:08;;;;;;;15.07;3.87;;;;;;;-145.18;100.00;47623.50;5029476;28;20277;-74
2022/01/07 02:25:34;;;;;;;9.40;4.40;;;;;;;-145.18;100.00;47623.50;5029668;28;20048;-75
2022/01/07 02:27:59;;;;;;;12.20;3.73;;;;;;;-145.18;100.00;47619.59;5030280;28;20613;-74
2022/01/07 02:30:29;;;;;;;12.67;3.63;;;;;;;-145.18;100.00;47613.75;5029531;28;20460;-74
2022/01/07 02:32:56;;;;;;;17.10;4.27;;;;;;;-145.18;100.00;47654.78;5028770;28;20041;-74
2022/01/07 02:35:24;;;;;;;14.93;4.60;;;;;;;-145.18;100.00;47627.41;5029746;28;20275;-73
2022/01/07 02:37:50;;;;;;;16.43;5.80;;;;;;;-145.18;100.00;47627.41;5028856;28;20822;-73
2022/01/07 02:40:16;;;;;;;17.73;4.70;;;;;;;-145.18;100.00;47643.03;5028715;28;20275;-73
2022/01/07 02:42:42;;;;;;;9.10;4.03;;;;;;;-145.18;100.00;47613.75;5028319;28;20061;-73
2022/01/07 02:45:08;;;;;;;14.33;4.80;;;;;;;-145.18;100.00;47629.38;5029884;28;20335;-73
2022/01/07 02:47:49;;;;;;;13.27;5.00;;;;;;;-145.18;100.00;47629.38;5027648;28;20762;-74
2022/01/07 02:50:15;;;;;;;12.00;5.03;;;;;;;-145.18;100.00;47633.28;5029381;28;20772;-73
2022/01/07 02:52:40;;;;;;;16.67;5.07;;;;;;;-145.18;100.00;47621.56;5028374;28;20258;-73
2022/01/07 02:55:06;;;;;;;11.57;4.50;;;;;;;-145.18;100.00;47633.28;5026814;28;20843;-73
2022/01/07 02:57:32;;;;;;;10.30;5.33;;;;;;;-145.18;100.00;47621.56;5028888;28;20040;-73
2022/01/07 02:59:57;;;;;;;13.53;4.57;;;;;;;-145.18;100.00;47650.88;5029052;28;20814;-73
2022/01/07 03:02:22;;;;;;;11.10;5.23;;;;;;;-145.18;100.00;47631.31;5028872;28;20103;-74
2022/01/07 03:04:48;;;;;;;13.17;5.60;;;;;;;-145.18;100.00;47645.00;5027996;28;20156;-73
2022/01/07 03:07:13;;;;;;;12.07;5.20;;;;;;;-145.18;100.00;47619.59;5011965;28;20073;-73
2022/01/07 03:09:39;;;;;;;13.17;5.63;;;;;;;-145.18;100.00;47625.47;5009091;28;20041;-73
2022/01/07 03:12:05;;;;;;;9.40;5.20;;;;;;;-145.18;100.00;47611.78;5008982;28;20042;-73
2022/01/07 03:14:30;;;;;;;8.13;4.97;;;;;;;-145.18;100.00;47637.19;5022820;28;20041;-73
2022/01/07 03:16:55;;;;;;;12.53;6.53;;;;;;;-145.18;100.00;47625.47;5028716;28;20107;-72
2022/01/07 03:19:21;;;;;;;14.23;5.07;;;;;;;-145.18;100.00;47643.03;5029020;28;20156;-73
2022/01/07 03:21:46;;;;;;;14.43;5.77;;;;;;;-145.18;100.00;47613.75;5028297;28;22111;-73
2022/01/07 03:24:12;;;;;;;18.67;5.70;;;;;;;-145.18;100.00;47641.09;5012164;28;20042;-73
2022/01/07 03:26:38;;;;;;;10.68;5.60;;;;;;;-145.18;100.00;47643.03;5011684;28;20073;-73
2022/01/07 03:29:03;;;;;;;12.23;5.83;;;;;;;-145.18;100.00;47645.00;5028547;28;20121;-73
2022/01/07 03:31:29;;;;;;;11.13;5.43;;;;;;;-145.18;100.00;47637.19;5028588;28;20528;-73
2022/01/07 03:33:54;;;;;;;14.27;6.17;;;;;;;-145.18;100.00;47621.56;5028885;28;20156;-73
2022/01/07 03:36:19;;;;;;;12.00;6.07;;;;;;;-145.18;100.00;47609.84;5026504;28;20056;-73
2022/01/07 03:38:45;;;;;;;10.83;5.53;;;;;;;-145.18;100.00;47625.47;5027178;28;20199;-72
2022/01/07 03:41:10;;;;;;;16.73;6.83;;;;;;;-145.18;100.00;47631.31;5028175;28;20044;-73
2022/01/07 03:43:36;;;;;;;8.97;5.73;;;;;;;-145.18;100.00;47641.09;5027813;28;20088;-73
2022/01/07 03:46:01;;;;;;;10.57;6.70;;;;;;;-145.18;100.00;47641.09;5027441;28;20561;-72
2022/01/07 03:48:27;;;;;;;9.53;6.40;;;;;;;-145.18;100.00;47631.31;5028160;28;20041;-73
2022/01/07 03:50:52;;;;;;;15.63;6.73;;;;;;;-145.18;100.00;47633.28;5027459;28;20533;-73
2022/01/07 03:53:17;;;;;;;12.20;6.57;;;;;;;-145.18;100.00;47650.88;5027968;28;20037;-73
2022/01/07 03:55:43;;;;;;;16.77;6.90;;;;;;;-145.18;100.00;47645.00;5027587;28;20038;-73
2022/01/07 03:58:08;;;;;;;15.20;6.90;;;;;;;-145.18;100.00;47621.56;5027814;28;20133;-73
2022/01/07 04:00:38;;;;;;;12.13;6.23;;;;;;;-145.18;100.00;47652.81;5028939;28;20095;-72
2022/01/07 04:03:07;;;;;;;13.30;7.07;;;;;;;-145.18;100.00;47635.22;5027117;28;20037;-73
2022/01/07 04:05:32;;;;;;;16.95;8.35;;;;;;;-145.18;100.00;47641.09;5027700;28;20307;-72
2022/01/07 04:07:58;;;;;;;14.03;8.87;;;;;;;-145.18;100.00;47625.47;5027641;28;20037;-72
2022/01/07 04:10:23;;;;;;;13.47;8.10;;;;;;;-145.18;100.00;47654.78;5027547;28;20821;-72
2022/01/07 04:12:49;;;;;;;16.73;9.27;;;;;;;-145.18;100.00;47641.09;5027143;28;20033;-72
2022/01/07 04:15:16;;;;;;;15.13;8.57;;;;;;;-145.18;100.00;47609.84;5027868;28;20033;-72
2022/01/07 04:17:45;;;;;;;15.00;9.60;;;;;;;-145.18;100.00;47645.00;5027479;28;20044;-71
2022/01/07 04:20:14;;;;;;;21.25;10.80;;;;;;;-145.18;100.00;47637.19;5027728;28;20033;-72
2022/01/07 04:22:40;;;;;;;24.13;10.93;;;;;;;-145.18;100.00;47645.00;5027195;28;20121;-72
2022/01/07 04:25:12;;;;;;;18.73;9.87;;;;;;;-145.18;100.00;47637.19;5027495;28;20348;-71
2022/01/07 04:27:38;;;;;;;16.07;9.97;;;;;;;-145.18;100.00;47629.38;5027339;28;20746;-72
2022/01/07 04:30:03;;;;;;;17.03;9.60;;;;;;;-145.18;100.00;47629.38;5027318;28;20278;-71
2022/01/07 04:32:29;;;;;;;14.50;10.43;;;;;;;-145.18;100.00;47627.41;5026818;28;20041;-72
2022/01/07 04:34:54;;;;;;;15.07;11.20;;;;;;;-145.18;100.00;47605.94;5026196;28;20129;-72
2022/01/07 04:37:20;;;;;;;14.80;10.57;;;;;;;-145.18;100.00;47635.22;5027716;28;20082;-71
2022/01/07 04:39:45;;;;;;;19.90;11.43;;;;;;;-145.18;100.00;47603.97;5026998;28;20120;-71
2022/01/07 04:42:11;;;;;;;20.17;10.63;;;;;;;-145.18;100.00;47629.38;5027050;28;20037;-71
2022/01/07 04:44:40;;;;;;;18.57;12.03;;;;;;;-145.18;100.00;47623.50;5026711;28;20418;-71
2022/01/07 04:47:07;;;;;;;22.23;11.97;;;;;;;-145.18;100.00;47619.59;5026902;28;20107;-72
2022/01/07 04:49:32;;;;;;;21.87;13.13;;;;;;;-145.18;100.00;47588.34;5027419;28;20273;-72
2022/01/07 04:51:58;;;;;;;18.30;13.10;;;;;;;-145.18;100.00;47603.97;5026770;28;20283;-72
2022/01/07 04:54:23;;;;;;;21.60;13.63;;;;;;;-145.18;100.00;47617.66;5027487;28;20029;-71
2022/01/07 04:56:48;;;;;;;21.73;13.70;;;;;;;-145.18;100.00;47623.50;5026809;28;20079;-71
2022/01/07 04:59:14;;;;;;;23.20;14.47;;;;;;;-145.18;100.00;47611.78;5027336;28;20065;-71
2022/01/07 05:01:39;;;;;;;23.13;13.70;;;;;;;-145.18;100.00;47611.78;5026717;28;20094;-71
2022/01/07 05:04:04;;;;;;;20.60;14.23;;;;;;;-145.18;100.00;47609.84;5027011;28;20049;-72
2022/01/07 05:06:45;;;;;;;23.20;13.57;;;;;;;-145.18;100.00;47611.78;5026739;28;20040;-72
2022/01/07 05:09:17;;;;;;;26.33;15.47;;;;;;;-145.18;100.00;47600.06;5027269;28;20094;-72
2022/01/07 05:11:44;;;;;;;25.97;15.53;;;;;;;-145.18;100.00;47611.78;5026474;28;20357;-71
2022/01/07 05:14:10;;;;;;;25.73;14.77;;;;;;;-145.18;100.00;47590.28;5026753;28;20361;-72
2022/01/07 05:16:35;;;;;;;34.63;17.30;;;;;;;-145.18;100.00;47598.09;5027056;28;20277;-73
2022/01/07 05:19:01;;;;;;;27.33;17.23;;;;;;;-145.18;100.00;47596.16;5029330;28;20045;-73
2022/01/07 05:21:27;;;;;;;27.37;16.17;;;;;;;-145.18;100.00;47598.09;5031369;28;20045;-72
2022/01/07 05:23:52;;;;;;;23.47;16.77;;;;;;;-145.18;100.00;47613.75;5030417;28;20281;-72
2022/01/07 05:26:17;;;;;;;30.03;15.70;;;;;;;-145.18;100.00;47596.16;5030663;28;20049;-72
2022/01/07 05:28:43;;;;;;;28.33;15.63;;;;;;;-145.18;100.00;47596.16;5029009;28;20032;-72
2022/01/07 05:31:08;;;;;;;26.73;15.87;;;;;;;-145.18;100.00;47590.28;5030427;28;20098;-72
2022/01/07 05:33:33;;;;;;;31.00;15.63;;;;;;;-145.18;100.00;47611.78;5030673;28;20402;-73
2022/01/07 05:35:59;;;;;;;28.93;15.70;;;;;;;-145.18;100.00;47605.94;5031255;28;20071;-72
2022/01/07 05:38:24;;;;;;;23.33;15.03;;;;;;;-145.18;100.00;47598.09;5029983;28;20053;-72
2022/01/07 05:40:50;;;;;;;25.13;14.33;;;;;;;-145.18;100.00;47594.19;5030152;28;20068;-72
2022/01/07 05:43:16;;;;;;;24.13;15.83;;;;;;;-145.18;100.00;47605.94;5030194;28;20041;-73
2022/01/07 05:45:44;;;;;;;31.53;17.80;;;;;;;-145.18;100.00;47600.06;5030078;28;20041;-72
2022/01/07 05:48:10;;;;;;;26.20;16.93;;;;;;;-145.18;100.00;47613.75;5030034;28;20328;-72
2022/01/07 05:50:35;;;;;;;33.43;16.97;;;;;;;-145.18;100.00;47607.88;5027152;28;20283;-72
2022/01/07 05:53:01;;;;;;;29.83;16.50;;;;;;;-145.18;100.00;47572.72;5027711;28;20079;-72
2022/01/07 05:55:26;;;;;;;40.73;17.57;;;;;;;-145.18;100.00;47603.97;5028810;28;20521;-72
2022/01/07 05:57:51;;;;;;;27.10;16.27;;;;;;;-145.18;100.00;47596.16;5027787;28;20034;-72
2022/01/07 06:00:18;;;;;;;27.17;15.60;;;;;;;-145.18;100.00;47596.16;5028670;28;20065;-72
2022/01/07 06:02:43;;;;;;;27.00;17.67;;;;;;;-145.18;100.00;47596.16;5029197;28;20037;-72
2022/01/07 06:05:09;;;;;;;23.60;17.40;;;;;;;-145.18;100.00;47590.28;5030714;28;20297;-72
2022/01/07 06:07:35;;;;;;;26.77;14.53;;;;;;;-145.18;100.00;47580.53;5028329;28;20042;-73
2022/01/07 06:10:00;;;;;;;28.73;18.00;;;;;;;-145.18;100.00;47580.53;5029593;28;20038;-72
2022/01/07 06:12:26;;;;;;;28.53;18.27;;;;;;;-145.18;100.00;47590.28;5029787;28;20111;-72
2022/01/07 06:14:51;;;;;;;26.27;16.37;;;;;;;-145.18;100.00;47605.94;5029865;28;20041;-73
2022/01/07 06:17:18;;;;;;;31.33;18.83;;;;;;;-145.18;100.00;47605.94;5029635;28;20052;-72
2022/01/07 06:19:43;;;;;;;27.13;14.87;;;;;;;-145.18;100.00;47576.63;5030240;28;20049;-72
2022/01/07 06:22:09;;;;;;;25.77;17.87;;;;;;;-145.18;100.00;47594.19;5029125;28;20826;-72
2022/01/07 06:24:34;;;;;;;33.70;16.17;;;;;;;-145.18;100.00;47584.44;5028964;28;20038;-73
2022/01/07 06:26:59;;;;;;;29.93;17.67;;;;;;;-145.18;100.00;47570.75;5028303;28;20060;-73
2022/01/07 06:29:25;;;;;;;31.97;18.67;;;;;;;-145.18;100.00;47568.81;5028458;28;20481;-73
2022/01/07 06:31:50;;;;;;;33.83;18.57;;;;;;;-145.18;100.00;47578.56;5029128;28;20045;-73
2022/01/07 06:34:20;;;;;;;32.10;18.33;;;;;;;-145.18;100.00;47586.38;5028577;28;20041;-72
2022/01/07 06:36:45;;;;;;;33.50;18.23;;;;;;;-145.18;100.00;47584.44;5029016;28;20034;-72
2022/01/07 06:39:12;;;;;;;33.40;18.33;;;;;;;-145.18;100.00;47574.66;5029153;28;20344;-73
2022/01/07 06:41:37;;;;;;;36.70;18.90;;;;;;;-145.18;100.00;47562.94;5029053;28;20103;-73
2022/01/07 06:44:03;;;;;;;37.07;20.03;;;;;;;-145.18;100.00;47586.38;5028869;28;20830;-72
2022/01/07 06:46:29;;;;;;;36.07;20.23;;;;;;;-145.18;100.00;47576.63;5028994;28;20188;-72
2022/01/07 06:48:54;;;;;;;38.77;19.60;;;;;;;-145.18;100.00;47568.81;5026587;28;20079;-73
2022/01/07 06:51:20;;;;;;;29.23;19.40;;;;;;;-145.18;100.00;47578.56;5029055;28;20053;-73
2022/01/07 06:53:45;;;;;;;36.07;18.13;;;;;;;-145.18;100.00;47584.44;5028590;28;20034;-73
2022/01/07 06:56:10;;;;;;;27.17;15.20;;;;;;;-145.18;100.00;47584.44;5028309;28;20098;-73
2022/01/07 06:58:36;;;;;;;28.97;17.83;;;;;;;-145.18;100.00;47611.78;5026981;28;20049;-73
2022/01/07 07:01:05;;;;;;;27.73;18.03;;;;;;;-145.18;100.00;47613.75;5025504;28;20038;-73
2022/01/07 07:03:31;;;;;;;45.43;20.70;;;;;;;-145.18;100.00;47592.25;5028570;28;20037;-73
2022/01/07 07:05:56;;;;;;;27.93;17.90;;;;;;;-145.18;100.00;47576.63;5029216;28;20274;-73
2022/01/07 07:08:22;;;;;;;33.17;18.10;;;;;;;-145.18;100.00;47598.09;5028392;28;20048;-73
2022/01/07 07:10:47;;;;;;;31.53;17.17;;;;;;;-145.18;100.00;47578.56;5028442;28;20406;-73
2022/01/07 07:13:12;;;;;;;27.53;15.77;;;;;;;-145.18;100.00;47574.66;5023680;28;20543;-73
2022/01/07 07:15:38;;;;;;;20.20;11.20;;;;;;;-145.18;100.00;47576.63;5008543;28;20079;-73
2022/01/07 07:18:03;;;;;;;29.87;17.10;;;;;;;-145.18;100.00;47559.03;5008542;28;20127;-73
2022/01/07 07:20:29;;;;;;;32.93;17.83;;;;;;;-145.18;100.00;47596.16;5009806;28;20136;-73
2022/01/07 07:22:54;;;;;;;25.17;15.60;;;;;;;-145.18;100.00;47580.53;5013203;28;20491;-73
2022/01/07 07:25:22;;;;;;;26.87;15.50;;;;;;;-145.18;100.00;47562.94;5019525;28;20046;-73
2022/01/07 07:27:48;;;;;;;29.53;15.57;;;;;;;-145.18;100.00;47590.28;5021221;28;20060;-73
2022/01/07 07:30:13;;;;;;;31.43;15.70;;;;;;;-145.18;100.00;47564.91;5022338;28;20271;-73
2022/01/07 07:32:39;;;;;;;31.20;15.53;;;;;;;-145.18;100.00;47566.84;5021434;28;20114;-73
2022/01/07 07:37:49;;;;;;;26.53;14.87;;;;;;;-145.18;100.00;47566.84;5021911;28;20053;-72
2022/01/07 07:40:15;;;;;;;24.07;12.40;;;;;;;-145.18;100.00;47578.56;5022139;28;20267;-73
2022/01/07 07:42:41;;;;;;;20.90;13.93;;;;;;;-145.18;100.00;47564.91;5023416;28;20354;-73
2022/01/07 07:45:07;;;;;;;27.53;14.43;;;;;;;-145.18;100.00;47578.56;5023867;28;20077;-73
2022/01/07 07:47:34;;;;;;;23.50;12.97;;;;;;;-145.18;100.00;47578.56;5021664;28;20374;-73
2022/01/07 07:49:59;;;;;;;26.67;14.73;;;;;;;-145.18;100.00;47570.75;5018515;28;20045;-73
2022/01/07 07:52:25;;;;;;;24.57;13.90;;;;;;;-145.18;100.00;47584.44;5020966;28;20332;-73
2022/01/07 07:54:50;;;;;;;26.30;13.53;;;;;;;-145.18;100.00;47598.09;5007724;28;20490;-73
2022/01/07 07:57:15;;;;;;;26.93;14.23;;;;;;;-145.18;100.00;47584.44;5025047;28;20049;-73
2022/01/07 07:59:41;;;;;;;28.70;14.07;;;;;;;-145.18;100.00;47590.28;5024228;28;20037;-73
2022/01/07 08:02:09;;;;;;;26.17;14.63;;;;;;;-145.18;100.00;47584.44;5022594;28;20037;-72
2022/01/07 08:04:39;;;;;;;21.90;12.90;;;;;;;-145.18;100.00;47570.75;5019980;28;20136;-73
2022/01/07 08:07:05;;;;;;;22.33;12.63;;;;;;;-145.18;100.00;47588.34;5023834;28;20751;-73
2022/01/07 08:09:38;;;;;;;22.77;12.90;;;;;;;-145.18;100.00;47600.06;5016618;28;20349;-73
2022/01/07 08:12:17;;;;;;;19.53;11.83;;;;;;;-145.18;100.00;47588.34;5018596;28;20065;-73
2022/01/07 08:17:26;;;;;;;27.10;12.13;;;;;;;-145.18;100.00;47570.75;5019398;28;20317;-72
2022/01/07 08:19:52;;;;;;;19.77;11.37;;;;;;;-145.18;100.00;47598.09;5018810;28;20694;-72
2022/01/07 08:22:18;;;;;;;22.10;11.07;;;;;;;-145.18;100.00;47586.38;5022662;28;20421;-73
2022/01/07 08:24:44;;;;;;;23.90;11.80;;;;;;;-145.18;100.00;47586.38;5022433;28;20340;-73
2022/01/07 08:27:09;;;;;;;17.60;11.20;;;;;;;-145.18;100.00;47584.44;5014696;28;20042;-73
2022/01/07 08:29:37;;;;;;;18.63;8.93;;;;;;;-145.18;100.00;47586.38;5017749;28;20045;-72
2022/01/07 08:34:54;;;;;;;25.40;10.70;;;;;;;-145.18;100.00;47580.53;5024910;28;20786;-72
2022/01/07 08:37:24;;;;;;;28.20;11.00;;;;;;;-145.18;100.00;47584.44;5025177;28;20302;-73
2022/01/07 08:39:50;;;;;;;19.53;10.47;;;;;;;-145.18;100.00;47586.38;5025489;28;20283;-73
2022/01/07 08:42:17;;;;;;;23.27;11.10;;;;;;;-145.18;100.00;47600.06;5011648;28;20282;-73
2022/01/07 08:44:42;;;;;;;29.70;9.70;;;;;;;-145.18;100.00;47588.34;5025080;28;20042;-73
2022/01/07 08:47:08;;;;;;;25.40;11.83;;;;;;;-145.18;100.00;47574.66;5025050;28;20663;-73
2022/01/07 08:49:33;;;;;;;31.67;12.00;;;;;;;-145.18;100.00;47584.44;5025516;28;20050;-73
2022/01/07 08:51:59;;;;;;;19.63;10.60;;;;;;;-145.18;100.00;47582.47;5024120;28;20051;-73
2022/01/07 08:54:24;;;;;;;20.83;11.70;;;;;;;-145.18;100.00;47586.38;5026107;28;20340;-73
2022/01/07 08:56:49;;;;;;;28.57;12.70;;;;;;;-145.18;100.00;47586.38;5024795;28;20057;-72
2022/01/07 08:59:15;;;;;;;31.77;12.70;;;;;;;-145.18;100.00;47584.44;5025247;28;20045;-73
2022/01/07 09:01:40;;;;;;;28.27;12.40;;;;;;;-145.18;100.00;47586.38;5024978;28;20026;-73
2022/01/07 09:04:06;;;;;;;24.93;12.87;;;;;;;-145.18;100.00;47568.81;5025125;28;20045;-73
2022/01/07 09:06:31;;;;;;;18.47;11.00;;;;;;;-145.18;100.00;47568.81;5025731;28;20115;-73
2022/01/07 09:08:56;;;;;;;24.00;12.40;;;;;;;-145.18;100.00;47555.13;5024391;28;20552;-73
2022/01/07 09:11:22;;;;;;;16.53;10.47;;;;;;;-145.18;100.00;47559.03;5025007;28;20060;-73
2022/01/07 09:13:48;;;;;;;20.43;11.67;;;;;;;-145.18;100.00;47518.00;5024982;28;20475;-73
2022/01/07 09:16:15;;;;;;;24.30;11.90;;;;;;;-145.18;100.00;47551.22;5025550;28;20045;-73
2022/01/07 09:18:40;;;;;;;21.23;11.50;;;;;;;-145.18;100.00;47555.13;5024743;28;20496;-73
2022/01/07 09:21:05;;;;;;;25.20;12.47;;;;;;;-145.18;100.00;47508.22;5025327;28;20283;-73
2022/01/07 09:23:31;;;;;;;21.80;12.23;;;;;;;-145.18;100.00;47545.34;5026652;28;20046;-73
2022/01/07 09:25:56;;;;;;;26.00;11.07;;;;;;;-145.18;100.00;47527.78;5026778;28;20469;-72
2022/01/07 09:28:22;;;;;;;24.90;10.77;;;;;;;-145.18;100.00;47539.50;5026505;28;20080;-73
2022/01/07 09:30:47;;;;;;;19.90;10.00;;;;;;;-145.18;100.00;47543.41;5026586;28;20038;-73
2022/01/07 09:33:12;;;;;;;16.00;8.97;;;;;;;-145.18;100.00;47535.59;5025093;28;20091;-73
2022/01/07 09:35:38;;;;;;;15.80;7.60;;;;;;;-145.18;100.00;47535.59;5027404;28;20045;-73
2022/01/07 09:38:05;;;;;;;16.60;7.47;;;;;;;-145.18;100.00;47553.16;5024401;28;20046;-73
2022/01/07 09:40:30;;;;;;;19.33;8.10;;;;;;;-145.18;100.00;47551.22;5026572;28;22223;-72
2022/01/07 09:42:58;;;;;;;20.80;8.27;;;;;;;-145.18;100.00;47553.16;5026181;28;20880;-73
2022/01/07 09:45:25;;;;;;;20.27;7.70;;;;;;;-145.18;100.00;47555.13;5026246;28;20042;-73
2022/01/07 09:47:51;;;;;;;23.47;8.70;;;;;;;-145.18;100.00;47523.88;5025809;28;20283;-73
2022/01/07 09:50:16;;;;;;;15.27;7.67;;;;;;;-145.18;100.00;47527.78;5026516;28;20275;-73
2022/01/07 09:52:42;;;;;;;21.23;7.83;;;;;;;-145.18;100.00;47529.72;5025461;28;20271;-73
2022/01/07 09:55:08;;;;;;;21.70;6.97;;;;;;;-145.18;100.00;47506.28;5025939;28;20489;-73
2022/01/07 09:57:33;;;;;;;17.87;7.13;;;;;;;-145.18;100.00;47490.66;5026297;28;20505;-73
2022/01/07 10:00:00;;;;;;;13.23;5.10;;;;;;;-145.18;100.00;47463.31;5025723;28;20271;-73
2022/01/07 10:02:25;;;;;;;19.63;5.37;;;;;;;-145.18;100.00;47467.22;5026344;28;20037;-73
2022/01/07 10:04:51;;;;;;;15.20;5.57;;;;;;;-145.18;100.00;47478.94;5029043;28;20263;-73
2022/01/07 10:07:22;;;;;;;12.10;4.60;;;;;;;-145.18;100.00;47490.66;5030523;28;20167;-72
2022/01/07 10:10:10;;;;;;;16.13;4.57;;;;;;;-145.18;100.00;47488.69;5029541;28;20052;-72
2022/01/07 10:12:56;;;;;;;13.17;4.97;;;;;;;-145.18;100.00;47482.84;5029811;28;20263;-72
2022/01/07 10:15:23;;;;;;;;;;;;;;;-145.18;100.00;47498.47;5030190;28;20303;-72
2022/01/07 10:18:06;;;;;;;13.50;3.60;;;;;;;-145.18;100.00;47490.66;5028854;28;19923;-72
2022/01/07 10:20:46;;;;;;;17.47;4.10;;;;;;;-145.18;100.00;47504.31;5029484;28;20282;-72
2022/01/07 10:23:23;;;;;;;12.63;3.80;;;;;;;-145.18;100.00;47484.78;5029680;28;20271;-72
2022/01/07 10:25:52;;;;;;;12.90;3.60;;;;;;;-145.18;100.00;47508.22;5029720;28;20263;-72
2022/01/07 10:28:19;;;;;;;14.77;3.50;;;;;;;-145.18;100.00;47504.31;5028827;28;20378;-72
2022/01/07 10:30:54;;;;;;;8.53;2.83;;;;;;;-145.18;100.00;47500.41;5023181;28;20289;-72
2022/01/07 10:33:22;;;;;;;13.23;4.15;;;;;;;-145.18;100.00;47486.75;5035461;28;20283;-72
2022/01/07 10:35:52;;;;;;;8.53;4.20;;;;;;;-145.18;100.00;47512.16;5019977;28;20473;-72
2022/01/07 10:38:26;;;;;;;18.53;2.80;;;;;;;-145.18;100.00;47490.66;5018257;28;20278;-72
2022/01/07 10:40:54;;;;;;;15.33;3.90;;;;;;;-145.18;100.00;47510.19;5018367;28;20314;-72
2022/01/07 10:43:27;;;;;;;7.10;2.23;;;;;;;-145.18;100.00;47496.50;5016409;28;20378;-72
2022/01/07 10:45:58;;;;;;;15.27;2.80;;;;;;;-145.18;100.00;47490.66;5012660;28;20390;-73
2022/01/07 10:48:38;;;;;;;7.30;2.70;;;;;;;-145.18;100.00;47500.41;5015164;28;20358;-72
2022/01/07 10:51:12;;;;;;;8.10;2.50;;;;;;;-145.18;100.00;47482.84;5027305;28;20266;-72
2022/01/07 10:53:38;;;;;;;11.10;2.60;;;;;;;-145.18;100.00;47494.56;5025619;28;20815;-72
2022/01/07 10:56:06;;;;;;;16.57;2.80;;;;;;;-145.18;100.00;47486.75;5023670;28;20279;-73
2022/01/07 10:58:51;;;;;;;10.53;2.80;;;;;;;-145.18;100.00;47498.47;5024395;28;20269;-72
2022/01/07 11:01:19;;;;;;;9.77;2.10;;;;;;;-145.18;100.00;47504.31;5025014;28;20273;-72
2022/01/07 11:03:48;;;;;;;16.70;3.00;;;;;;;-145.18;100.00;47500.41;5026537;28;20778;-72
2022/01/07 11:06:14;;;;;;;13.17;2.93;;;;;;;-145.18;100.00;47484.78;5027779;28;20287;-73